Panagia Faneromeni — SW9785 — position and weather

sailwx.info

Track history (hours):
 
Tides and Currents Weather Stations Pressure Air Temp Water Temp Dewpoint Dewpoint Depression Visibility Wind Speed Wind Dir Waves Ship Positions

Panagia Faneromeni

Last reported at 2014-Oct-31 13:05 UTC. Time now 2014-Oct-31 17:57 UTC.
Position N 36°47' E 024°35'.

Length 33 m; draft 2 m.

Type: Ship. MMSI: 237071900.

Date/timePositionNaut miles runAvg speedWind from/ knotsBaromVisibWave heightAir tempDewpointWater temp
2014-Oct-31 13:05N 36°47' E 024°35'2 2.8
2014-Oct-31 12:20N 36°46' E 024°32'2 1.9
2014-Oct-31 11:13N 36°47' E 024°35'0 0.0
2014-Oct-31 10:08N 36°47' E 024°35'0 0.5
2014-Oct-31 09:30N 36°47' E 024°35'0 0.4
2014-Oct-31 08:33N 36°47' E 024°35'0 0.0
2014-Oct-31 07:33N 36°47' E 024°35'0 0.0
2014-Oct-31 06:32N 36°47' E 024°35'1 1.1
2014-Oct-31 05:33N 36°46' E 024°34'1 1.0
2014-Oct-31 04:29N 36°47' E 024°35'0 0.0
2014-Oct-31 03:28N 36°47' E 024°35'0 0.0
2014-Oct-31 02:28N 36°47' E 024°35'0 0.0
2014-Oct-31 01:22N 36°47' E 024°35'0 0.0
2014-Oct-31 00:29N 36°47' E 024°35'0 0.0
2014-Oct-30 23:29N 36°47' E 024°35'0 0.0
2014-Oct-30 22:28N 36°47' E 024°35'0 0.0
2014-Oct-30 21:28N 36°47' E 024°35'0 0.0
2014-Oct-30 20:28N 36°47' E 024°35'0 0.0
2014-Oct-30 19:29N 36°47' E 024°35'0 0.0
2014-Oct-30 18:29N 36°47' E 024°35'0 0.0
2014-Oct-30 17:22N 36°47' E 024°35'0 0.0
2014-Oct-30 16:22N 36°47' E 024°35'0 0.0
2014-Oct-30 15:28N 36°47' E 024°35'0 0.0
2014-Oct-30 14:29N 36°47' E 024°35'0 0.0
2014-Oct-30 13:28N 36°47' E 024°35'2 1.2
2014-Oct-30 12:14N 36°46' E 024°33'2 2.1
2014-Oct-30 11:31N 36°47' E 024°35'0 0.0
2014-Oct-30 10:33N 36°47' E 024°35'0 0.0
2014-Oct-30 09:31N 36°47' E 024°35'0 0.2
2014-Oct-30 08:33N 36°47' E 024°35'0 0.1
2014-Oct-30 07:26N 36°47' E 024°35'0 0.0
2014-Oct-30 06:26N 36°47' E 024°35'1 1.0
2014-Oct-30 05:33N 36°46' E 024°34'1 0.8
2014-Oct-30 04:29N 36°47' E 024°35'0 0.0
2014-Oct-30 03:28N 36°47' E 024°35'0 0.0
2014-Oct-30 02:11N 36°47' E 024°35'0 0.0
2014-Oct-30 00:29N 36°47' E 024°35'0 0.0
2014-Oct-29 23:29N 36°47' E 024°35'0 0.0
2014-Oct-29 22:28N 36°47' E 024°35'0 0.0
2014-Oct-29 21:28N 36°47' E 024°35'0 0.0
2014-Oct-29 20:22N 36°47' E 024°35'0 0.0
2014-Oct-29 19:29N 36°47' E 024°35'0 0.0
2014-Oct-29 18:22N 36°47' E 024°35'0 0.0
2014-Oct-29 17:29N 36°47' E 024°35'0 0.0
2014-Oct-29 16:29N 36°47' E 024°35'0 0.0
2014-Oct-29 15:28N 36°47' E 024°35'0 0.0
2014-Oct-29 14:22N 36°47' E 024°35'0 0.0
2014-Oct-29 13:29N 36°47' E 024°35'3 2.6
2014-Oct-29 12:24N 36°46' E 024°32'3 2.9
2014-Oct-29 11:28N 36°47' E 024°35'0 0.0
2014-Oct-29 10:33N 36°47' E 024°35'0 0.0
2014-Oct-29 09:27N 36°47' E 024°35'0 0.0
2014-Oct-29 08:28N 36°47' E 024°35'0 0.0
2014-Oct-29 07:04N 36°47' E 024°35'0 0.0
2014-Oct-29 06:17N 36°47' E 024°35'1 1.5
2014-Oct-29 05:33N 36°46' E 024°34'1 1.0
2014-Oct-29 04:31N 36°47' E 024°35'0 0.0
2014-Oct-29 03:20N 36°47' E 024°35'0 0.0
2014-Oct-29 02:32N 36°47' E 024°35'0 0.0
2014-Oct-29 01:26N 36°47' E 024°35'0 0.0
2014-Oct-28 23:20N 36°47' E 024°35'0 0.0
2014-Oct-28 22:32N 36°47' E 024°35'0 0.0
2014-Oct-28 21:25N 36°47' E 024°35'0 0.0
2014-Oct-28 20:20N 36°47' E 024°35'0 0.0
2014-Oct-28 19:20N 36°47' E 024°35'0 0.0
2014-Oct-28 18:25N 36°47' E 024°35'0 0.0
2014-Oct-28 17:31N 36°47' E 024°35'0 0.0
2014-Oct-28 16:32N 36°47' E 024°35'0 0.0
2014-Oct-28 15:32N 36°47' E 024°35'0 0.0
2014-Oct-28 14:26N 36°47' E 024°35'0 0.0
2014-Oct-28 13:20N 36°47' E 024°35'3 3.5
2014-Oct-28 12:32N 36°46' E 024°32'3 2.4
2014-Oct-28 11:23N 36°47' E 024°35'0 0.0
2014-Oct-28 10:05N 36°47' E 024°35'0 0.0
2014-Oct-28 09:29N 36°47' E 024°35'0 0.0
2014-Oct-28 08:31N 36°47' E 024°35'0 0.0
2014-Oct-28 07:32N 36°47' E 024°35'0 0.0
2014-Oct-28 06:31N 36°47' E 024°35'1 1.0
2014-Oct-28 05:33N 36°46' E 024°34'1 0.9
2014-Oct-28 04:26N 36°47' E 024°35'0 0.0
2014-Oct-28 03:32N 36°47' E 024°35'0 0.0
2014-Oct-28 02:32N 36°47' E 024°35'0 0.0
2014-Oct-28 01:31N 36°47' E 024°35'0 0.0
2014-Oct-27 23:31N 36°47' E 024°35'0 0.0
2014-Oct-27 21:32N 36°47' E 024°35'0 0.0
2014-Oct-27 19:32N 36°47' E 024°35'3 0.4
2014-Oct-27 12:25N 36°46' E 024°32'3 0.9
2014-Oct-27 09:27N 36°47' E 024°35'0 0.2
2014-Oct-27 08:29N 36°47' E 024°35'0 0.0
2014-Oct-27 07:28N 36°47' E 024°35'0 0.0
2014-Oct-27 06:28N 36°47' E 024°35'1 1.1
2014-Oct-27 05:33N 36°46' E 024°34'1 0.8
2014-Oct-27 04:22N 36°47' E 024°35'0 0.0
2014-Oct-27 03:22N 36°47' E 024°35'0 0.0
2014-Oct-27 02:33N 36°47' E 024°35'0 0.0
2014-Oct-27 01:28N 36°47' E 024°35'0 0.0
2014-Oct-27 00:33N 36°47' E 024°35'0 0.0
2014-Oct-26 23:33N 36°47' E 024°35'0 0.0
2014-Oct-26 22:27N 36°47' E 024°35'0 0.0
2014-Oct-26 21:21N 36°47' E 024°35'0 0.0
2014-Oct-26 20:28N 36°47' E 024°35'0 0.0
2014-Oct-26 19:33N 36°47' E 024°35'0 0.0
2014-Oct-26 18:33N 36°47' E 024°35'0 0.0
2014-Oct-26 17:27N 36°47' E 024°35'0 0.0
2014-Oct-26 16:34N 36°47' E 024°35'0 0.0
2014-Oct-26 15:28N 36°47' E 024°35'0 0.0
2014-Oct-26 14:21N 36°47' E 024°35'0 0.0
2014-Oct-26 13:33N 36°47' E 024°35'3 2.4
2014-Oct-26 12:25N 36°46' E 024°32'3 2.9
2014-Oct-26 11:27N 36°47' E 024°35'0 0.2
2014-Oct-26 09:25N 36°47' E 024°35'0 0.3
2014-Oct-26 08:33N 36°47' E 024°35'0 0.1
2014-Oct-26 07:27N 36°47' E 024°35'0 0.0
2014-Oct-26 06:22N 36°47' E 024°35'0 0.0
2014-Oct-26 05:21N 36°47' E 024°35'0 0.0
2014-Oct-26 04:22N 36°47' E 024°35'0 0.0
2014-Oct-26 03:33N 36°47' E 024°35'0 0.0
2014-Oct-26 02:15N 36°47' E 024°35'0 0.0
2014-Oct-26 01:28N 36°47' E 024°35'0 0.0
2014-Oct-26 00:27N 36°47' E 024°35'0 0.0
2014-Oct-25 23:28N 36°47' E 024°35'0 0.0
2014-Oct-25 22:33N 36°47' E 024°35'0 0.0
2014-Oct-25 21:33N 36°47' E 024°35'0 0.0
2014-Oct-25 20:28N 36°47' E 024°35'0 0.0
2014-Oct-25 19:22N 36°47' E 024°35'0 0.0
2014-Oct-25 18:28N 36°47' E 024°35'0 0.0
2014-Oct-25 17:21N 36°47' E 024°35'0 0.0
2014-Oct-25 15:33N 36°47' E 024°35'0 0.3
2014-Oct-25 14:23N 36°47' E 024°35'0 0.3
2014-Oct-25 13:32N 36°47' E 024°35'0 0.1
2014-Oct-25 12:33N 36°47' E 024°35'0 0.0
2014-Oct-25 11:33N 36°47' E 024°35'0 0.0
2014-Oct-25 10:16N 36°47' E 024°35'0 0.0
2014-Oct-25 09:10N 36°47' E 024°35'0 0.0
2014-Oct-25 08:27N 36°47' E 024°35'3 1.4
2014-Oct-25 06:25N 36°46' E 024°32'0 0.0
2014-Oct-25 05:31N 36°46' E 024°32'0 0.0
2014-Oct-25 04:31N 36°46' E 024°32'0 0.0
2014-Oct-25 03:31N 36°46' E 024°32'0 0.0
2014-Oct-25 02:33N 36°46' E 024°32'0 0.0
2014-Oct-25 01:25N 36°46' E 024°32'0 0.0
2014-Oct-25 00:24N 36°46' E 024°32'0 0.0
2014-Oct-24 23:31N 36°46' E 024°32'0 0.0
2014-Oct-24 22:31N 36°46' E 024°32'0 0.0
2014-Oct-24 21:31N 36°46' E 024°32'0 0.0
2014-Oct-24 20:30N 36°46' E 024°32'0 0.0
2014-Oct-24 19:31N 36°46' E 024°32'0 0.0
2014-Oct-24 18:31N 36°46' E 024°32'0 0.0
2014-Oct-24 17:25N 36°46' E 024°32'0 0.0
2014-Oct-24 16:31N 36°46' E 024°32'0 0.0
2014-Oct-24 15:31N 36°46' E 024°32'0 0.0
2014-Oct-24 14:31N 36°46' E 024°32'0 0.0
2014-Oct-24 13:30N 36°46' E 024°32'0 0.0
2014-Oct-24 12:31N 36°46' E 024°32'0 0.0
2014-Oct-24 11:31N 36°46' E 024°32'0 0.0
2014-Oct-24 10:31N 36°46' E 024°32'0 0.0
2014-Oct-24 09:31N 36°46' E 024°32'0 0.0
2014-Oct-24 08:30N 36°46' E 024°32'3 2.7
2014-Oct-24 07:29N 36°47' E 024°35'0 0.0
2014-Oct-24 06:06N 36°47' E 024°35'0 0.0
2014-Oct-24 05:30N 36°47' E 024°35'1 1.5
2014-Oct-24 04:33N 36°46' E 024°33'1 1.2
2014-Oct-24 03:26N 36°46' E 024°32'0 0.1
2014-Oct-24 02:29N 36°46' E 024°32'0 0.0
2014-Oct-24 01:29N 36°46' E 024°32'0 0.0
2014-Oct-24 00:29N 36°46' E 024°32'0 0.0
2014-Oct-23 23:28N 36°46' E 024°32'0 0.0
2014-Oct-23 22:29N 36°46' E 024°32'0 0.0
2014-Oct-23 21:29N 36°46' E 024°32'0 0.0
2014-Oct-23 20:29N 36°46' E 024°32'0 0.0
2014-Oct-23 19:29N 36°46' E 024°32'0 0.0
2014-Oct-23 18:23N 36°46' E 024°32'0 0.0
2014-Oct-23 17:28N 36°46' E 024°32'0 0.0
2014-Oct-23 16:28N 36°46' E 024°32'0 0.0
2014-Oct-23 15:28N 36°46' E 024°32'0 0.0
2014-Oct-23 14:29N 36°46' E 024°32'0 0.0
2014-Oct-23 13:29N 36°46' E 024°32'0 0.0
2014-Oct-23 12:29N 36°46' E 024°32'0 0.0
2014-Oct-23 11:29N 36°46' E 024°32'0 0.0
2014-Oct-23 10:29N 36°46' E 024°32'0 0.0
2014-Oct-23 09:29N 36°46' E 024°32'0 0.0
2014-Oct-23 08:29N 36°46' E 024°32'0 0.0
2014-Oct-23 07:28N 36°46' E 024°32'0 0.0
2014-Oct-23 06:28N 36°46' E 024°32'0 0.0
2014-Oct-23 05:23N 36°46' E 024°32'0 0.0
2014-Oct-23 04:29N 36°46' E 024°32'0 0.0
2014-Oct-23 03:29N 36°46' E 024°32'0 0.0
2014-Oct-23 02:29N 36°46' E 024°32'0 0.0
2014-Oct-23 01:29N 36°46' E 024°32'0 0.0
2014-Oct-23 00:23N 36°46' E 024°32'0 0.0
2014-Oct-22 23:23N 36°46' E 024°32'0 0.0
2014-Oct-22 22:28N 36°46' E 024°32'0 0.0
2014-Oct-22 21:31N 36°46' E 024°32'0 0.0
2014-Oct-22 20:29N 36°46' E 024°32'0 0.0
2014-Oct-22 19:17N 36°46' E 024°32'0 0.0
2014-Oct-22 18:17N 36°46' E 024°32'0 0.0
2014-Oct-22 17:29N 36°46' E 024°32'0 0.0
2014-Oct-22 16:29N 36°46' E 024°32'0 0.0
2014-Oct-22 15:29N 36°46' E 024°32'0 0.0
2014-Oct-22 14:29N 36°46' E 024°32'0 0.0
2014-Oct-22 13:29N 36°46' E 024°32'0 0.0
2014-Oct-22 12:28N 36°46' E 024°32'0 0.0
2014-Oct-22 11:29N 36°46' E 024°32'3 0.5
2014-Oct-22 06:15N 36°47' E 024°35'0 0.0
2014-Oct-22 05:33N 36°47' E 024°35'1 1.3
2014-Oct-22 04:32N 36°46' E 024°34'1 1.3
2014-Oct-22 03:31N 36°47' E 024°35'0 0.0
2014-Oct-22 02:13N 36°47' E 024°35'0 0.0
2014-Oct-22 01:13N 36°47' E 024°35'0 0.0
2014-Oct-22 00:25N 36°47' E 024°35'0 0.0
2014-Oct-21 23:31N 36°47' E 024°35'0 0.0
2014-Oct-21 22:31N 36°47' E 024°35'0 0.0
2014-Oct-21 21:31N 36°47' E 024°35'0 0.0
2014-Oct-21 20:31N 36°47' E 024°35'0 0.0
2014-Oct-21 19:19N 36°47' E 024°35'0 0.0
2014-Oct-21 18:31N 36°47' E 024°35'0 0.0
2014-Oct-21 17:19N 36°47' E 024°35'0 0.0
2014-Oct-21 16:31N 36°47' E 024°35'0 0.0
2014-Oct-21 15:07N 36°47' E 024°35'0 0.0
2014-Oct-21 14:13N 36°47' E 024°35'0 0.0
2014-Oct-21 13:19N 36°47' E 024°35'  
Track history (hours):
 
Tides and Currents Weather Stations Pressure Air Temp Water Temp Dewpoint Dewpoint Depression Visibility Wind Speed Wind Dir Waves Ship Positions

Panagia Faneromeni

Last reported at 2014-Oct-31 13:05 UTC. Time now 2014-Oct-31 17:57 UTC.
Position N 36°47' E 024°35'.

Length 33 m; draft 2 m.

Type: Ship. MMSI: 237071900.

Date/timePositionNaut miles runAvg speedWind from/ knotsBaromVisibWave heightAir tempDewpointWater temp
2014-Oct-31 13:05N 36°47' E 024°35'2 2.8
2014-Oct-31 12:20N 36°46' E 024°32'2 1.9
2014-Oct-31 11:13N 36°47' E 024°35'0 0.0
2014-Oct-31 10:08N 36°47' E 024°35'0 0.5
2014-Oct-31 09:30N 36°47' E 024°35'0 0.4
2014-Oct-31 08:33N 36°47' E 024°35'0 0.0
2014-Oct-31 07:33N 36°47' E 024°35'0 0.0
2014-Oct-31 06:32N 36°47' E 024°35'1 1.1
2014-Oct-31 05:33N 36°46' E 024°34'1 1.0
2014-Oct-31 04:29N 36°47' E 024°35'0 0.0
2014-Oct-31 03:28N 36°47' E 024°35'0 0.0
2014-Oct-31 02:28N 36°47' E 024°35'0 0.0
2014-Oct-31 01:22N 36°47' E 024°35'0 0.0
2014-Oct-31 00:29N 36°47' E 024°35'0 0.0
2014-Oct-30 23:29N 36°47' E 024°35'0 0.0
2014-Oct-30 22:28N 36°47' E 024°35'0 0.0
2014-Oct-30 21:28N 36°47' E 024°35'0 0.0
2014-Oct-30 20:28N 36°47' E 024°35'0 0.0
2014-Oct-30 19:29N 36°47' E 024°35'0 0.0
2014-Oct-30 18:29N 36°47' E 024°35'0 0.0
2014-Oct-30 17:22N 36°47' E 024°35'0 0.0
2014-Oct-30 16:22N 36°47' E 024°35'0 0.0
2014-Oct-30 15:28N 36°47' E 024°35'0 0.0
2014-Oct-30 14:29N 36°47' E 024°35'0 0.0
2014-Oct-30 13:28N 36°47' E 024°35'2 1.2
2014-Oct-30 12:14N 36°46' E 024°33'2 2.1
2014-Oct-30 11:31N 36°47' E 024°35'0 0.0
2014-Oct-30 10:33N 36°47' E 024°35'0 0.0
2014-Oct-30 09:31N 36°47' E 024°35'0 0.2
2014-Oct-30 08:33N 36°47' E 024°35'0 0.1
2014-Oct-30 07:26N 36°47' E 024°35'0 0.0
2014-Oct-30 06:26N 36°47' E 024°35'1 1.0
2014-Oct-30 05:33N 36°46' E 024°34'1 0.8
2014-Oct-30 04:29N 36°47' E 024°35'0 0.0
2014-Oct-30 03:28N 36°47' E 024°35'0 0.0
2014-Oct-30 02:11N 36°47' E 024°35'0 0.0
2014-Oct-30 00:29N 36°47' E 024°35'0 0.0
2014-Oct-29 23:29N 36°47' E 024°35'0 0.0
2014-Oct-29 22:28N 36°47' E 024°35'0 0.0
2014-Oct-29 21:28N 36°47' E 024°35'0 0.0
2014-Oct-29 20:22N 36°47' E 024°35'0 0.0
2014-Oct-29 19:29N 36°47' E 024°35'0 0.0
2014-Oct-29 18:22N 36°47' E 024°35'0 0.0
2014-Oct-29 17:29N 36°47' E 024°35'0 0.0
2014-Oct-29 16:29N 36°47' E 024°35'0 0.0
2014-Oct-29 15:28N 36°47' E 024°35'0 0.0
2014-Oct-29 14:22N 36°47' E 024°35'0 0.0
2014-Oct-29 13:29N 36°47' E 024°35'3 2.6
2014-Oct-29 12:24N 36°46' E 024°32'3 2.9
2014-Oct-29 11:28N 36°47' E 024°35'0 0.0
2014-Oct-29 10:33N 36°47' E 024°35'0 0.0
2014-Oct-29 09:27N 36°47' E 024°35'0 0.0
2014-Oct-29 08:28N 36°47' E 024°35'0 0.0
2014-Oct-29 07:04N 36°47' E 024°35'0 0.0
2014-Oct-29 06:17N 36°47' E 024°35'1 1.5
2014-Oct-29 05:33N 36°46' E 024°34'1 1.0
2014-Oct-29 04:31N 36°47' E 024°35'0 0.0
2014-Oct-29 03:20N 36°47' E 024°35'0 0.0
2014-Oct-29 02:32N 36°47' E 024°35'0 0.0
2014-Oct-29 01:26N 36°47' E 024°35'0 0.0
2014-Oct-28 23:20N 36°47' E 024°35'0 0.0
2014-Oct-28 22:32N 36°47' E 024°35'0 0.0
2014-Oct-28 21:25N 36°47' E 024°35'0 0.0
2014-Oct-28 20:20N 36°47' E 024°35'0 0.0
2014-Oct-28 19:20N 36°47' E 024°35'0 0.0
2014-Oct-28 18:25N 36°47' E 024°35'0 0.0
2014-Oct-28 17:31N 36°47' E 024°35'0 0.0
2014-Oct-28 16:32N 36°47' E 024°35'0 0.0
2014-Oct-28 15:32N 36°47' E 024°35'0 0.0
2014-Oct-28 14:26N 36°47' E 024°35'0 0.0
2014-Oct-28 13:20N 36°47' E 024°35'3 3.5
2014-Oct-28 12:32N 36°46' E 024°32'3 2.4
2014-Oct-28 11:23N 36°47' E 024°35'0 0.0
2014-Oct-28 10:05N 36°47' E 024°35'0 0.0
2014-Oct-28 09:29N 36°47' E 024°35'0 0.0
2014-Oct-28 08:31N 36°47' E 024°35'0 0.0
2014-Oct-28 07:32N 36°47' E 024°35'0 0.0
2014-Oct-28 06:31N 36°47' E 024°35'1 1.0
2014-Oct-28 05:33N 36°46' E 024°34'1 0.9
2014-Oct-28 04:26N 36°47' E 024°35'0 0.0
2014-Oct-28 03:32N 36°47' E 024°35'0 0.0
2014-Oct-28 02:32N 36°47' E 024°35'0 0.0
2014-Oct-28 01:31N 36°47' E 024°35'0 0.0
2014-Oct-27 23:31N 36°47' E 024°35'0 0.0
2014-Oct-27 21:32N 36°47' E 024°35'0 0.0
2014-Oct-27 19:32N 36°47' E 024°35'3 0.4
2014-Oct-27 12:25N 36°46' E 024°32'3 0.9
2014-Oct-27 09:27N 36°47' E 024°35'0 0.2
2014-Oct-27 08:29N 36°47' E 024°35'0 0.0
2014-Oct-27 07:28N 36°47' E 024°35'0 0.0
2014-Oct-27 06:28N 36°47' E 024°35'1 1.1
2014-Oct-27 05:33N 36°46' E 024°34'1 0.8
2014-Oct-27 04:22N 36°47' E 024°35'0 0.0
2014-Oct-27 03:22N 36°47' E 024°35'0 0.0
2014-Oct-27 02:33N 36°47' E 024°35'0 0.0
2014-Oct-27 01:28N 36°47' E 024°35'0 0.0
2014-Oct-27 00:33N 36°47' E 024°35'0 0.0
2014-Oct-26 23:33N 36°47' E 024°35'0 0.0
2014-Oct-26 22:27N 36°47' E 024°35'0 0.0
2014-Oct-26 21:21N 36°47' E 024°35'0 0.0
2014-Oct-26 20:28N 36°47' E 024°35'0 0.0
2014-Oct-26 19:33N 36°47' E 024°35'0 0.0
2014-Oct-26 18:33N 36°47' E 024°35'0 0.0
2014-Oct-26 17:27N 36°47' E 024°35'0 0.0
2014-Oct-26 16:34N 36°47' E 024°35'0 0.0
2014-Oct-26 15:28N 36°47' E 024°35'0 0.0
2014-Oct-26 14:21N 36°47' E 024°35'0 0.0
2014-Oct-26 13:33N 36°47' E 024°35'3 2.4
2014-Oct-26 12:25N 36°46' E 024°32'3 2.9
2014-Oct-26 11:27N 36°47' E 024°35'0 0.2
2014-Oct-26 09:25N 36°47' E 024°35'0 0.3
2014-Oct-26 08:33N 36°47' E 024°35'0 0.1
2014-Oct-26 07:27N 36°47' E 024°35'0 0.0
2014-Oct-26 06:22N 36°47' E 024°35'0 0.0
2014-Oct-26 05:21N 36°47' E 024°35'0 0.0
2014-Oct-26 04:22N 36°47' E 024°35'0 0.0
2014-Oct-26 03:33N 36°47' E 024°35'0 0.0
2014-Oct-26 02:15N 36°47' E 024°35'0 0.0
2014-Oct-26 01:28N 36°47' E 024°35'0 0.0
2014-Oct-26 00:27N 36°47' E 024°35'0 0.0
2014-Oct-25 23:28N 36°47' E 024°35'0 0.0
2014-Oct-25 22:33N 36°47' E 024°35'0 0.0
2014-Oct-25 21:33N 36°47' E 024°35'0 0.0
2014-Oct-25 20:28N 36°47' E 024°35'0 0.0
2014-Oct-25 19:22N 36°47' E 024°35'0 0.0
2014-Oct-25 18:28N 36°47' E 024°35'0 0.0
2014-Oct-25 17:21N 36°47' E 024°35'0 0.0
2014-Oct-25 15:33N 36°47' E 024°35'0 0.3
2014-Oct-25 14:23N 36°47' E 024°35'0 0.3
2014-Oct-25 13:32N 36°47' E 024°35'0 0.1
2014-Oct-25 12:33N 36°47' E 024°35'0 0.0
2014-Oct-25 11:33N 36°47' E 024°35'0 0.0
2014-Oct-25 10:16N 36°47' E 024°35'0 0.0
2014-Oct-25 09:10N 36°47' E 024°35'0 0.0
2014-Oct-25 08:27N 36°47' E 024°35'3 1.4
2014-Oct-25 06:25N 36°46' E 024°32'0 0.0
2014-Oct-25 05:31N 36°46' E 024°32'0 0.0
2014-Oct-25 04:31N 36°46' E 024°32'0 0.0
2014-Oct-25 03:31N 36°46' E 024°32'0 0.0
2014-Oct-25 02:33N 36°46' E 024°32'0 0.0
2014-Oct-25 01:25N 36°46' E 024°32'0 0.0
2014-Oct-25 00:24N 36°46' E 024°32'0 0.0
2014-Oct-24 23:31N 36°46' E 024°32'0 0.0
2014-Oct-24 22:31N 36°46' E 024°32'0 0.0
2014-Oct-24 21:31N 36°46' E 024°32'0 0.0
2014-Oct-24 20:30N 36°46' E 024°32'0 0.0
2014-Oct-24 19:31N 36°46' E 024°32'0 0.0
2014-Oct-24 18:31N 36°46' E 024°32'0 0.0
2014-Oct-24 17:25N 36°46' E 024°32'0 0.0
2014-Oct-24 16:31N 36°46' E 024°32'0 0.0
2014-Oct-24 15:31N 36°46' E 024°32'0 0.0
2014-Oct-24 14:31N 36°46' E 024°32'0 0.0
2014-Oct-24 13:30N 36°46' E 024°32'0 0.0
2014-Oct-24 12:31N 36°46' E 024°32'0 0.0
2014-Oct-24 11:31N 36°46' E 024°32'0 0.0
2014-Oct-24 10:31N 36°46' E 024°32'0 0.0
2014-Oct-24 09:31N 36°46' E 024°32'0 0.0
2014-Oct-24 08:30N 36°46' E 024°32'3 2.7
2014-Oct-24 07:29N 36°47' E 024°35'0 0.0
2014-Oct-24 06:06N 36°47' E 024°35'0 0.0
2014-Oct-24 05:30N 36°47' E 024°35'1 1.5
2014-Oct-24 04:33N 36°46' E 024°33'1 1.2
2014-Oct-24 03:26N 36°46' E 024°32'0 0.1
2014-Oct-24 02:29N 36°46' E 024°32'0 0.0
2014-Oct-24 01:29N 36°46' E 024°32'0 0.0
2014-Oct-24 00:29N 36°46' E 024°32'0 0.0
2014-Oct-23 23:28N 36°46' E 024°32'0 0.0
2014-Oct-23 22:29N 36°46' E 024°32'0 0.0
2014-Oct-23 21:29N 36°46' E 024°32'0 0.0
2014-Oct-23 20:29N 36°46' E 024°32'0 0.0
2014-Oct-23 19:29N 36°46' E 024°32'0 0.0
2014-Oct-23 18:23N 36°46' E 024°32'0 0.0
2014-Oct-23 17:28N 36°46' E 024°32'0 0.0
2014-Oct-23 16:28N 36°46' E 024°32'0 0.0
2014-Oct-23 15:28N 36°46' E 024°32'0 0.0
2014-Oct-23 14:29N 36°46' E 024°32'0 0.0
2014-Oct-23 13:29N 36°46' E 024°32'0 0.0
2014-Oct-23 12:29N 36°46' E 024°32'0 0.0
2014-Oct-23 11:29N 36°46' E 024°32'0 0.0
2014-Oct-23 10:29N 36°46' E 024°32'0 0.0
2014-Oct-23 09:29N 36°46' E 024°32'0 0.0
2014-Oct-23 08:29N 36°46' E 024°32'0 0.0
2014-Oct-23 07:28N 36°46' E 024°32'0 0.0
2014-Oct-23 06:28N 36°46' E 024°32'0 0.0
2014-Oct-23 05:23N 36°46' E 024°32'0 0.0
2014-Oct-23 04:29N 36°46' E 024°32'0 0.0
2014-Oct-23 03:29N 36°46' E 024°32'0 0.0
2014-Oct-23 02:29N 36°46' E 024°32'0 0.0
2014-Oct-23 01:29N 36°46' E 024°32'0 0.0
2014-Oct-23 00:23N 36°46' E 024°32'0 0.0
2014-Oct-22 23:23N 36°46' E 024°32'0 0.0
2014-Oct-22 22:28N 36°46' E 024°32'0 0.0
2014-Oct-22 21:31N 36°46' E 024°32'0 0.0
2014-Oct-22 20:29N 36°46' E 024°32'0 0.0
2014-Oct-22 19:17N 36°46' E 024°32'0 0.0
2014-Oct-22 18:17N 36°46' E 024°32'0 0.0
2014-Oct-22 17:29N 36°46' E 024°32'0 0.0
2014-Oct-22 16:29N 36°46' E 024°32'0 0.0
2014-Oct-22 15:29N 36°46' E 024°32'0 0.0
2014-Oct-22 14:29N 36°46' E 024°32'0 0.0
2014-Oct-22 13:29N 36°46' E 024°32'0 0.0
2014-Oct-22 12:28N 36°46' E 024°32'0 0.0
2014-Oct-22 11:29N 36°46' E 024°32'3 0.5
2014-Oct-22 06:15N 36°47' E 024°35'0 0.0
2014-Oct-22 05:33N 36°47' E 024°35'1 1.3
2014-Oct-22 04:32N 36°46' E 024°34'1 1.3
2014-Oct-22 03:31N 36°47' E 024°35'0 0.0
2014-Oct-22 02:13N 36°47' E 024°35'0 0.0
2014-Oct-22 01:13N 36°47' E 024°35'0 0.0
2014-Oct-22 00:25N 36°47' E 024°35'0 0.0
2014-Oct-21 23:31N 36°47' E 024°35'0 0.0
2014-Oct-21 22:31N 36°47' E 024°35'0 0.0
2014-Oct-21 21:31N 36°47' E 024°35'0 0.0
2014-Oct-21 20:31N 36°47' E 024°35'0 0.0
2014-Oct-21 19:19N 36°47' E 024°35'0 0.0
2014-Oct-21 18:31N 36°47' E 024°35'0 0.0
2014-Oct-21 17:19N 36°47' E 024°35'0 0.0
2014-Oct-21 16:31N 36°47' E 024°35'0 0.0
2014-Oct-21 15:07N 36°47' E 024°35'0 0.0
2014-Oct-21 14:13N 36°47' E 024°35'0 0.0
2014-Oct-21 13:19N 36°47' E 024°35'  

Dump ship's entire track history